Tampa, FL

2:19 PM EST on January 31, 2015 (GMT -0500)
Lowry Park North | Change Station
CLOSE
Current Station
Personal Weather Station
Location: Tampa, FL
Elevation: 59 ft
Nearby Weather Stations

Elev 59 ft 28.02 °N, 82.47 °W | Updated 9 minutes ago

Mostly Cloudy
Mostly Cloudy
70.9 °F
Feels Like 76 °F
N
2.2
Wind Variable Wind from East

Today
High -- | Low -- °F
--% Chance of Precip.
Yesterday
High -- | Low -- °F
Precip. -- in
7:17 AM 6:09 PM
Waxing Gibbous, 91% visible
Pressure 30.24 in
Visibility 10.0 miles
Clouds Few 20000 ft
Mostly Cloudy 27000 ft
Heat Index 76 °F
Dew Point 57 °F
Humidity 61%
Rainfall 0.00 in
Snow Depth Not available.
UV 4 out of 12
Pollen 9.20 out of 12
Air Quality Not available.
Flu Activity Not available.
METAR KTPA 311853Z 07008KT 040V110 10SM FEW200 BKN270 22/07 A3024 RMK AO2 SLP240 T02170072

More Conditions Fewer Conditions

Pressure 30.24 in
Visibility 10.0 miles
Clouds Few 20000 ft
Mostly Cloudy 27000 ft
Heat Index 76 °F
Dew Point 57 °F
Humidity 61%
Rainfall 0.00 in
Snow Depth Not available.
UV 4 out of 12
Pollen 9.20 out of 12
Air Quality Not available.
Flu Activity Not available.
METAR KTPA 311853Z 07008KT 040V110 10SM FEW200 BKN270 22/07 A3024 RMK AO2 SLP240 T02170072

More Conditions Fewer Conditions

10-Day Weather Forecast

Almanac

Astronomy

Jan. 31, 2015 Rise Set
Actual Time
Civil Twilight
Nautical Twilight
Astronomical Twilight
Moon
Length of Visible Light
Length of Day
Tomorrow will be .
, % of the Moon is Illuminated

Today's Extremes

State Highs State Lows

Community

WunderPhotos

Upload Photos

1,792,154 photos uploaded!

WunderBlogs® & News

Nearby

Air Quality

  Air Quality AQ Index Pollutant
Not available.

Snow Depth

Station Depth Elevation

Earthquake Activity

City Distance Mag. Time & Date
Minimum magnitude displayed is 2.5.

Coastal Water Temperatures

Place Temperature

Nearby Weather Stations